createdAt,value
2017-12-23T00:00:44.889Z,38.40
2017-12-23T00:01:44.878Z,37.40
2017-12-23T00:02:44.860Z,37.20
2017-12-23T00:03:44.837Z,36.90
2017-12-23T00:04:44.844Z,38.70
2017-12-23T00:05:44.798Z,37.30
2017-12-23T00:06:44.784Z,38.30
2017-12-23T00:07:44.761Z,38.30
2017-12-23T00:08:44.745Z,38.30
2017-12-23T00:09:44.725Z,38.70
2017-12-23T00:10:44.706Z,38.90
2017-12-23T00:11:44.684Z,39.70
2017-12-23T00:12:44.677Z,39.20
2017-12-23T00:13:44.652Z,40.60
2017-12-23T00:15:44.689Z,41.80
2017-12-23T00:16:44.711Z,41.20
2017-12-23T00:17:44.592Z,40.40
2017-12-23T00:18:44.551Z,41.40
2017-12-23T00:19:44.521Z,40.60
2017-12-23T00:20:44.493Z,41.90
2017-12-23T00:21:44.500Z,42.10
2017-12-23T00:22:44.461Z,40.10
2017-12-23T00:23:44.444Z,39.50
2017-12-23T00:24:44.419Z,42.20
2017-12-23T00:25:44.401Z,41.30
2017-12-23T00:26:44.394Z,41.00
2017-12-23T00:27:44.382Z,41.60
2017-12-23T00:28:44.357Z,41.20
2017-12-23T00:29:44.329Z,43.10
2017-12-23T00:30:44.350Z,42.90
2017-12-23T00:31:44.295Z,40.60
2017-12-23T00:32:44.277Z,42.80
2017-12-23T00:33:44.255Z,42.30
2017-12-23T00:34:44.235Z,43.70
2017-12-23T00:35:44.223Z,43.30
2017-12-23T00:36:44.202Z,42.50
2017-12-23T00:37:44.187Z,42.50
2017-12-23T00:38:44.167Z,42.60
2017-12-23T00:39:44.154Z,42.60
2017-12-23T00:40:44.132Z,42.70
2017-12-23T00:41:44.110Z,43.40
2017-12-23T00:42:44.097Z,41.00
2017-12-23T00:43:44.078Z,43.60
2017-12-23T00:44:44.064Z,42.60
2017-12-23T00:45:44.041Z,43.00
2017-12-23T00:46:44.034Z,44.60
2017-12-23T00:47:44.002Z,43.20
2017-12-23T00:48:43.984Z,42.30
2017-12-23T00:49:43.970Z,42.70
2017-12-23T00:50:43.956Z,44.40
2017-12-23T00:51:43.930Z,43.20
2017-12-23T00:52:43.907Z,45.00
2017-12-23T00:53:43.894Z,47.00
2017-12-23T00:54:43.897Z,42.50
2017-12-23T00:55:43.862Z,42.70
2017-12-23T00:56:43.884Z,43.80
2017-12-23T00:57:43.829Z,46.40
2017-12-23T00:58:43.808Z,44.80
2017-12-23T00:59:43.789Z,45.20
2017-12-23T01:00:43.766Z,44.50
2017-12-23T01:01:43.776Z,45.80
2017-12-23T01:02:43.736Z,45.30
2017-12-23T01:03:43.715Z,44.00
2017-12-23T01:04:43.724Z,44.40
2017-12-23T01:05:43.676Z,44.40
2017-12-23T01:06:43.736Z,43.90
2017-12-23T01:07:43.643Z,45.20
2017-12-23T01:08:43.618Z,43.60
2017-12-23T01:09:43.606Z,44.70
2017-12-23T01:10:43.590Z,44.50
2017-12-23T01:11:43.567Z,44.70
2017-12-23T01:12:43.545Z,43.50
2017-12-23T01:13:43.534Z,46.60
2017-12-23T01:14:43.513Z,45.60
2017-12-23T01:15:43.495Z,46.00
2017-12-23T01:16:43.480Z,42.50
2017-12-23T01:17:43.470Z,45.30
2017-12-23T01:18:43.449Z,45.00
2017-12-23T01:19:43.420Z,45.20
2017-12-23T01:20:43.400Z,45.70
2017-12-23T01:21:43.381Z,45.00
2017-12-23T01:22:43.369Z,43.40
2017-12-23T01:23:43.347Z,45.10
2017-12-23T01:24:43.328Z,45.30
2017-12-23T01:25:43.319Z,43.40
2017-12-23T01:26:43.292Z,46.70
2017-12-23T01:27:43.275Z,45.50
2017-12-23T01:28:43.256Z,46.80
2017-12-23T01:30:43.225Z,45.20
2017-12-23T01:31:43.208Z,46.10
2017-12-23T01:32:43.175Z,47.30
2017-12-23T01:33:43.167Z,46.80
2017-12-23T01:34:43.146Z,44.60
2017-12-23T01:35:43.128Z,45.80
2017-12-23T01:36:43.124Z,46.10
2017-12-23T01:37:43.088Z,48.50
2017-12-23T01:38:43.076Z,46.50
2017-12-23T01:39:43.058Z,47.80
2017-12-23T01:40:43.028Z,48.40
2017-12-23T01:41:43.023Z,47.40
2017-12-23T01:42:43.000Z,46.30
2017-12-23T01:43:42.979Z,47.60
2017-12-23T01:44:42.962Z,46.70
2017-12-23T01:45:42.943Z,49.20
2017-12-23T01:46:42.927Z,48.60
2017-12-23T01:47:42.906Z,47.10
2017-12-23T01:48:42.886Z,46.30
2017-12-23T01:49:42.867Z,46.10
2017-12-23T01:50:42.846Z,43.90
2017-12-23T01:51:42.832Z,46.30
2017-12-23T01:52:42.823Z,46.60
2017-12-23T01:53:42.791Z,45.60
2017-12-23T01:54:42.775Z,45.40
2017-12-23T01:55:42.759Z,45.20
2017-12-23T01:56:42.741Z,45.50
2017-12-23T01:57:42.723Z,44.60
2017-12-23T01:58:42.699Z,45.80
2017-12-23T01:59:42.682Z,45.40
2017-12-23T02:00:42.664Z,43.90
2017-12-23T02:01:42.642Z,44.70
2017-12-23T02:02:42.635Z,44.90
2017-12-23T02:03:42.609Z,43.50
2017-12-23T02:04:42.587Z,42.60
2017-12-23T02:05:42.573Z,44.80
2017-12-23T02:06:42.559Z,42.30
2017-12-23T02:07:42.533Z,43.90
2017-12-23T02:08:42.516Z,45.30
2017-12-23T02:09:42.506Z,44.10
2017-12-23T02:10:42.544Z,43.90
2017-12-23T02:11:42.458Z,43.30
2017-12-23T02:12:42.434Z,41.80
2017-12-23T02:13:42.430Z,41.30
2017-12-23T02:14:42.412Z,41.80
2017-12-23T02:15:42.382Z,42.80
2017-12-23T02:16:42.364Z,41.50
2017-12-23T02:17:42.343Z,40.50
2017-12-23T02:18:42.348Z,40.50
2017-12-23T02:19:42.307Z,40.00
2017-12-23T02:20:42.323Z,36.60
2017-12-23T02:21:42.268Z,39.00
2017-12-23T02:22:42.265Z,40.50
2017-12-23T02:23:42.233Z,38.10
2017-12-23T02:24:42.286Z,39.90
2017-12-23T02:25:42.192Z,35.80
2017-12-23T02:26:42.183Z,34.80
2017-12-23T02:27:42.169Z,36.30
2017-12-23T02:28:42.171Z,36.90
2017-12-23T02:29:42.121Z,34.80
2017-12-23T02:30:42.112Z,36.10
2017-12-23T02:31:42.133Z,34.40
2017-12-23T02:32:42.075Z,34.80
2017-12-23T02:33:42.052Z,34.30
2017-12-23T02:34:42.032Z,35.60
2017-12-23T02:35:42.011Z,33.70
2017-12-23T02:36:41.993Z,33.90
2017-12-23T02:37:41.977Z,33.00
2017-12-23T02:38:41.960Z,33.20
2017-12-23T02:39:41.942Z,32.50
2017-12-23T02:40:41.916Z,30.90
2017-12-23T02:41:41.902Z,29.70
2017-12-23T02:42:41.880Z,29.30
2017-12-23T02:43:41.862Z,30.00
2017-12-23T02:44:41.849Z,27.10
2017-12-23T02:45:41.840Z,25.70
2017-12-23T02:46:41.824Z,26.10
2017-12-23T02:47:41.788Z,25.70
2017-12-23T02:48:41.770Z,24.90
2017-12-23T02:49:41.747Z,24.20
2017-12-23T02:50:41.737Z,23.20
2017-12-23T02:51:41.720Z,21.80
2017-12-23T02:52:41.695Z,23.00
2017-12-23T02:53:41.711Z,22.10
2017-12-23T02:54:41.669Z,21.10
2017-12-23T02:55:41.647Z,21.00
2017-12-23T02:56:41.629Z,21.10
2017-12-23T02:57:41.608Z,21.80
2017-12-23T02:58:41.597Z,21.30
2017-12-23T02:59:41.567Z,20.30
2017-12-23T03:00:41.562Z,20.00
2017-12-23T03:01:41.525Z,21.10
2017-12-23T03:02:41.533Z,20.30
2017-12-23T03:03:41.494Z,19.60
2017-12-23T03:04:41.465Z,20.00
2017-12-23T03:05:41.450Z,18.70
2017-12-23T03:06:41.443Z,19.60
2017-12-23T03:07:41.428Z,19.30
2017-12-23T03:08:41.396Z,18.70
2017-12-23T03:09:41.381Z,18.90
2017-12-23T03:10:41.363Z,18.40
2017-12-23T03:11:41.339Z,19.70
2017-12-23T03:12:41.323Z,19.30
2017-12-23T03:13:41.302Z,19.70
2017-12-23T03:14:41.281Z,19.40
2017-12-23T03:15:41.269Z,19.40
2017-12-23T03:16:41.246Z,20.30
2017-12-23T03:17:41.225Z,19.10
2017-12-23T03:18:41.209Z,19.30
2017-12-23T03:19:41.189Z,19.20
2017-12-23T03:20:41.172Z,18.90
2017-12-23T03:21:41.147Z,20.30
2017-12-23T03:22:41.138Z,19.80
2017-12-23T03:23:41.124Z,19.20
2017-12-23T03:24:41.097Z,20.00
2017-12-23T03:25:41.077Z,20.20
2017-12-23T03:26:41.068Z,21.80
2017-12-23T03:27:41.041Z,21.20
2017-12-23T03:28:41.028Z,20.60
2017-12-23T03:29:41.002Z,22.30
2017-12-23T03:30:40.985Z,21.90
2017-12-23T03:31:40.968Z,22.80
2017-12-23T03:32:40.946Z,22.10
2017-12-23T03:33:40.921Z,21.00
2017-12-23T03:34:40.918Z,21.80
2017-12-23T03:35:40.893Z,21.70
2017-12-23T03:36:40.899Z,22.60
2017-12-23T03:37:40.848Z,22.00
2017-12-23T03:38:40.850Z,22.60
2017-12-23T03:39:40.818Z,22.70
2017-12-23T03:40:40.819Z,22.30
2017-12-23T03:41:40.795Z,23.60
2017-12-23T03:42:40.758Z,22.20
2017-12-23T03:43:40.742Z,22.90
2017-12-23T03:44:40.724Z,22.30
2017-12-23T03:45:40.737Z,23.40
2017-12-23T03:46:40.692Z,23.20
2017-12-23T03:47:40.664Z,23.40
2017-12-23T03:48:40.649Z,23.90
2017-12-23T03:49:40.641Z,23.70
2017-12-23T03:50:40.612Z,26.40
2017-12-23T03:51:40.597Z,24.30
2017-12-23T03:52:40.576Z,23.60
2017-12-23T03:53:40.548Z,25.30
2017-12-23T03:54:40.535Z,25.40
2017-12-23T03:55:40.513Z,25.20
2017-12-23T03:56:40.500Z,26.50
2017-12-23T03:57:40.480Z,26.00
2017-12-23T03:58:40.452Z,25.20
2017-12-23T03:59:40.438Z,25.70
2017-12-23T04:00:40.424Z,27.80
2017-12-23T04:01:40.400Z,26.10
2017-12-23T04:02:40.378Z,26.10
2017-12-23T04:03:40.378Z,25.50
2017-12-23T04:04:40.350Z,27.80
2017-12-23T04:05:40.330Z,25.80
2017-12-23T04:06:40.311Z,26.70
2017-12-23T04:07:40.288Z,28.10
2017-12-23T04:08:40.266Z,28.00
2017-12-23T04:09:40.279Z,29.30
2017-12-23T04:10:40.230Z,27.80
2017-12-23T04:11:40.209Z,29.30
2017-12-23T04:12:40.194Z,28.90
2017-12-23T04:13:40.179Z,29.20
2017-12-23T04:14:40.150Z,28.50
2017-12-23T04:15:40.137Z,29.00
2017-12-23T04:16:40.114Z,27.10
2017-12-23T04:17:40.104Z,28.00
2017-12-23T04:18:40.082Z,28.40
2017-12-23T04:19:40.061Z,27.70
2017-12-23T04:20:40.043Z,27.00
2017-12-23T04:21:40.028Z,27.30
2017-12-23T04:22:40.009Z,25.90
2017-12-23T04:23:39.990Z,25.70
2017-12-23T04:24:39.974Z,25.30
2017-12-23T04:25:39.951Z,27.30
2017-12-23T04:26:39.924Z,24.70
2017-12-23T04:27:39.913Z,25.10
2017-12-23T04:28:39.892Z,25.40
2017-12-23T04:29:39.876Z,25.10
2017-12-23T04:30:39.862Z,24.80
2017-12-23T04:31:39.877Z,25.40
2017-12-23T04:32:39.818Z,24.60
2017-12-23T04:33:39.806Z,25.40
2017-12-23T04:34:39.787Z,26.40
2017-12-23T04:35:39.772Z,24.00
2017-12-23T04:36:39.743Z,23.70
2017-12-23T04:37:39.725Z,26.30
2017-12-23T04:38:39.706Z,25.30
2017-12-23T04:39:39.692Z,25.20
2017-12-23T04:40:39.666Z,25.40
2017-12-23T04:41:39.664Z,25.80
2017-12-23T04:42:39.642Z,26.10
2017-12-23T04:43:39.615Z,27.20
2017-12-23T04:44:39.650Z,26.10
2017-12-23T04:45:39.591Z,28.00
2017-12-23T04:46:39.584Z,28.40
2017-12-23T04:47:39.556Z,27.60
2017-12-23T04:48:39.532Z,27.80
2017-12-23T04:49:39.510Z,28.10
2017-12-23T04:50:39.488Z,29.90
2017-12-23T04:51:39.479Z,30.00
2017-12-23T04:52:39.480Z,29.40
2017-12-23T04:53:39.436Z,28.70
2017-12-23T04:54:39.478Z,29.30
2017-12-23T04:55:39.382Z,29.90
2017-12-23T04:56:39.403Z,30.40
2017-12-23T04:57:39.386Z,29.60
2017-12-23T04:58:39.365Z,30.20
2017-12-23T04:59:39.332Z,29.80
2017-12-23T05:00:39.330Z,31.10
2017-12-23T05:01:39.272Z,29.20
2017-12-23T05:02:39.313Z,29.00
2017-12-23T05:03:39.249Z,29.90
2017-12-23T05:04:39.234Z,29.30
2017-12-23T05:05:39.203Z,29.40
2017-12-23T05:06:39.194Z,29.80
2017-12-23T05:07:39.203Z,29.50
2017-12-23T05:08:39.155Z,29.40
2017-12-23T05:09:39.141Z,30.80
2017-12-23T05:10:39.122Z,31.90
2017-12-23T05:11:39.096Z,30.30
2017-12-23T05:12:39.070Z,29.80
2017-12-23T05:13:39.046Z,31.90
2017-12-23T05:14:39.059Z,29.60
2017-12-23T05:15:39.066Z,30.30
2017-12-23T05:16:39.000Z,31.10
2017-12-23T05:17:38.992Z,32.70
2017-12-23T05:18:38.972Z,32.30
2017-12-23T05:19:39.041Z,33.00
2017-12-23T05:20:38.935Z,29.40
2017-12-23T05:21:38.934Z,29.40
2017-12-23T05:22:38.889Z,28.70
2017-12-23T05:23:39.016Z,27.30
2017-12-23T05:24:38.858Z,25.00
2017-12-23T05:25:38.831Z,25.20
2017-12-23T05:26:38.821Z,22.30
2017-12-23T05:27:38.805Z,22.00
2017-12-23T05:28:38.779Z,21.80
2017-12-23T05:29:38.771Z,21.40
2017-12-23T05:30:38.762Z,21.20
2017-12-23T05:31:38.725Z,22.60
2017-12-23T05:32:38.725Z,20.90
2017-12-23T05:33:38.672Z,20.50
2017-12-23T05:34:38.671Z,19.80
2017-12-23T05:35:38.655Z,19.30
2017-12-23T05:36:38.628Z,18.50
2017-12-23T05:37:38.605Z,18.60
2017-12-23T05:38:38.597Z,18.30
2017-12-23T05:39:38.593Z,18.10
2017-12-23T05:40:38.552Z,19.70
2017-12-23T05:41:38.554Z,18.70
2017-12-23T05:42:38.514Z,20.30
2017-12-23T05:43:38.504Z,24.70
2017-12-23T05:44:38.494Z,25.40
2017-12-23T05:45:38.462Z,26.40
2017-12-23T05:46:38.454Z,28.90
2017-12-23T05:47:38.433Z,30.80
2017-12-23T05:48:38.405Z,31.20
2017-12-23T05:49:38.389Z,32.70
2017-12-23T05:50:38.373Z,32.70
2017-12-23T05:51:38.370Z,33.40
2017-12-23T05:52:38.369Z,34.20
2017-12-23T05:53:38.310Z,33.50
2017-12-23T05:54:38.297Z,33.60
2017-12-23T05:55:38.294Z,38.80
2017-12-23T05:56:38.274Z,32.40
2017-12-23T05:57:38.239Z,33.50
2017-12-23T05:58:38.222Z,33.40
2017-12-23T05:59:38.218Z,34.90
2017-12-23T06:00:38.185Z,32.10
2017-12-23T06:01:38.167Z,30.30
2017-12-23T06:02:38.169Z,31.70
2017-12-23T06:03:38.133Z,30.40
2017-12-23T06:04:38.128Z,29.50
2017-12-23T06:05:38.095Z,28.50
2017-12-23T06:06:38.085Z,29.10
2017-12-23T06:07:38.066Z,27.70
2017-12-23T06:08:38.025Z,26.50
2017-12-23T06:09:38.014Z,26.30
2017-12-23T06:10:37.999Z,25.60
2017-12-23T06:11:37.987Z,26.50
2017-12-23T06:12:37.985Z,25.90
2017-12-23T06:13:37.941Z,26.20
2017-12-23T06:14:37.921Z,25.30
2017-12-23T06:15:37.897Z,24.20
2017-12-23T06:16:37.882Z,24.30
2017-12-23T06:17:37.874Z,23.60
2017-12-23T06:18:37.850Z,22.30
2017-12-23T06:19:37.832Z,22.40
2017-12-23T06:20:37.816Z,22.00
2017-12-23T06:21:37.792Z,22.10
2017-12-23T06:22:37.774Z,22.60
2017-12-23T06:23:37.779Z,22.00
2017-12-23T06:24:37.760Z,22.20
2017-12-23T06:25:37.720Z,20.90
2017-12-23T06:26:37.707Z,20.30
2017-12-23T06:27:37.677Z,19.70
2017-12-23T06:28:37.685Z,19.50
2017-12-23T06:29:37.646Z,19.70
2017-12-23T06:30:37.629Z,19.60
2017-12-23T06:31:37.619Z,19.00
2017-12-23T06:32:37.625Z,18.90
2017-12-23T06:33:37.628Z,18.70
2017-12-23T06:34:37.551Z,18.70
2017-12-23T06:35:37.526Z,19.80
2017-12-23T06:36:37.560Z,18.80
2017-12-23T06:37:37.512Z,18.60
2017-12-23T06:38:37.480Z,18.70
2017-12-23T06:39:37.478Z,18.80
2017-12-23T06:40:37.443Z,18.90
2017-12-23T06:41:37.434Z,19.00
2017-12-23T06:42:37.407Z,19.90
2017-12-23T06:43:37.390Z,19.30
2017-12-23T06:44:37.379Z,19.40
2017-12-23T06:45:37.344Z,19.90
2017-12-23T06:46:37.326Z,19.80
2017-12-23T06:47:37.295Z,19.90
2017-12-23T06:48:37.273Z,20.00
2017-12-23T06:49:37.268Z,19.80
2017-12-23T06:50:37.308Z,20.20
2017-12-23T06:51:37.262Z,20.50
2017-12-23T06:52:37.217Z,20.50
2017-12-23T06:53:37.192Z,20.80
2017-12-23T06:54:37.181Z,21.20
2017-12-23T06:55:37.182Z,21.30
2017-12-23T06:56:37.178Z,20.60
2017-12-23T06:57:37.183Z,22.10
2017-12-23T06:58:37.093Z,21.50
2017-12-23T06:59:37.113Z,21.50
2017-12-23T07:00:37.056Z,20.80
2017-12-23T07:02:37.022Z,22.10
2017-12-23T07:03:37.036Z,22.30
2017-12-23T07:04:36.983Z,22.30
2017-12-23T07:05:36.966Z,21.70
2017-12-23T07:06:36.949Z,22.60
2017-12-23T07:07:36.937Z,22.50
2017-12-23T07:08:36.921Z,21.00
2017-12-23T07:09:36.928Z,21.50
2017-12-23T07:10:36.889Z,22.40
2017-12-23T07:11:36.860Z,21.50
2017-12-23T07:12:36.842Z,20.60
2017-12-23T07:13:36.825Z,21.90
2017-12-23T07:14:36.795Z,22.30
2017-12-23T07:15:36.816Z,21.90
2017-12-23T07:16:36.770Z,20.90
2017-12-23T07:17:36.751Z,21.30
2017-12-23T07:18:36.748Z,21.40
2017-12-23T07:19:36.736Z,20.80
2017-12-23T07:20:36.682Z,21.90
2017-12-23T07:21:36.669Z,20.60
2017-12-23T07:22:36.656Z,20.60
2017-12-23T07:23:36.645Z,22.10
2017-12-23T07:24:36.607Z,21.90
2017-12-23T07:25:36.657Z,21.10
2017-12-23T07:26:36.592Z,21.00
2017-12-23T07:27:36.567Z,21.50
2017-12-23T07:28:36.528Z,21.30
2017-12-23T07:29:36.559Z,21.80
2017-12-23T07:30:36.493Z,21.00
2017-12-23T07:31:36.481Z,21.70
2017-12-23T07:32:36.454Z,20.20
2017-12-23T07:33:36.437Z,21.30
2017-12-23T07:34:36.442Z,22.20
2017-12-23T07:35:36.414Z,22.50
2017-12-23T07:36:36.383Z,22.60
2017-12-23T07:37:36.361Z,21.30
2017-12-23T07:38:36.359Z,21.90
2017-12-23T07:39:36.327Z,22.00
2017-12-23T07:40:36.324Z,22.50
2017-12-23T07:41:36.293Z,22.50
2017-12-23T07:42:36.278Z,21.90
2017-12-23T07:43:36.261Z,23.40
2017-12-23T07:44:36.229Z,23.50
2017-12-23T07:45:36.216Z,23.90
2017-12-23T07:46:36.205Z,24.50
2017-12-23T07:47:36.186Z,25.70
2017-12-23T07:48:36.169Z,24.50
2017-12-23T07:49:36.145Z,23.80
2017-12-23T07:50:36.135Z,24.90
2017-12-23T07:51:36.134Z,26.30
2017-12-23T07:52:36.104Z,26.00
2017-12-23T07:53:36.058Z,26.50
2017-12-23T07:54:36.075Z,26.00
2017-12-23T07:55:36.039Z,26.50
2017-12-23T07:56:36.030Z,27.30
2017-12-23T07:57:35.985Z,26.20
2017-12-23T07:58:35.979Z,27.90
2017-12-23T07:59:35.951Z,27.70
2017-12-23T08:00:35.946Z,26.70
2017-12-23T08:01:35.913Z,28.60
2017-12-23T08:02:35.917Z,29.50
2017-12-23T08:03:35.945Z,28.10
2017-12-23T08:04:35.881Z,29.90
2017-12-23T08:05:35.838Z,29.80
2017-12-23T08:06:35.856Z,28.60
2017-12-23T08:07:35.815Z,29.20
2017-12-23T08:08:35.786Z,32.00
2017-12-23T08:09:35.834Z,30.10
2017-12-23T08:10:35.762Z,29.90
2017-12-23T08:11:35.728Z,31.30
2017-12-23T08:12:35.858Z,31.10
2017-12-23T08:13:35.694Z,29.80
2017-12-23T08:14:35.669Z,31.70
2017-12-23T08:15:35.656Z,30.50
2017-12-23T08:16:35.626Z,32.60
2017-12-23T08:17:35.619Z,31.40
2017-12-23T08:18:35.595Z,30.70
2017-12-23T08:19:35.601Z,31.30
2017-12-23T08:20:35.611Z,31.90
2017-12-23T08:21:35.538Z,33.10
2017-12-23T08:22:35.523Z,32.50
2017-12-23T08:23:36.005Z,32.80
2017-12-23T08:24:35.505Z,33.60
2017-12-23T08:25:36.041Z,34.60
2017-12-23T08:26:35.470Z,32.90
2017-12-23T08:27:35.425Z,36.00
2017-12-23T08:28:35.418Z,36.00
2017-12-23T08:29:35.495Z,36.00
2017-12-23T08:30:36.011Z,34.80
2017-12-23T08:31:35.353Z,35.70
2017-12-23T08:32:36.007Z,37.40
2017-12-23T08:33:35.345Z,38.00
2017-12-23T08:34:35.295Z,38.60
2017-12-23T08:35:35.317Z,39.80
2017-12-23T08:36:35.260Z,38.50
2017-12-23T08:37:35.344Z,39.00
2017-12-23T08:38:35.303Z,39.80
2017-12-23T08:39:35.412Z,39.70
2017-12-23T08:40:35.186Z,39.70
2017-12-23T08:41:35.175Z,39.70
2017-12-23T08:42:35.154Z,39.50
2017-12-23T08:43:35.138Z,39.70
2017-12-23T08:44:35.108Z,40.00
2017-12-23T08:45:35.086Z,37.10
2017-12-23T08:46:36.512Z,39.50
2017-12-23T08:47:35.050Z,39.30
2017-12-23T08:48:35.034Z,39.00
2017-12-23T08:49:35.025Z,37.70
2017-12-23T08:50:35.026Z,38.50
2017-12-23T08:51:34.980Z,37.50
2017-12-23T08:52:34.950Z,37.90
2017-12-23T08:53:34.933Z,37.10
2017-12-23T08:54:34.924Z,35.00
2017-12-23T08:55:34.912Z,35.30
2017-12-23T08:56:34.889Z,34.00
2017-12-23T08:57:34.866Z,35.70
2017-12-23T08:58:34.856Z,34.30
2017-12-23T08:59:34.837Z,34.20
2017-12-23T09:00:34.832Z,33.00
2017-12-23T09:01:34.789Z,32.00
2017-12-23T09:02:34.763Z,30.70
2017-12-23T09:03:34.769Z,32.20
2017-12-23T09:04:34.732Z,32.30
2017-12-23T09:05:34.710Z,32.10
2017-12-23T09:06:34.712Z,32.80
2017-12-23T09:07:34.701Z,32.80
2017-12-23T09:08:34.655Z,34.80
2017-12-23T09:09:34.705Z,31.80
2017-12-23T09:10:34.619Z,33.40
2017-12-23T09:11:34.646Z,33.40
2017-12-23T09:12:34.577Z,34.60
2017-12-23T09:13:34.581Z,34.70
2017-12-23T09:14:34.553Z,33.50
2017-12-23T09:15:34.534Z,34.50
2017-12-23T09:16:34.508Z,34.40
2017-12-23T09:17:34.598Z,35.60
2017-12-23T09:18:34.475Z,33.80
2017-12-23T09:19:34.463Z,35.70
2017-12-23T09:20:34.431Z,37.00
2017-12-23T09:21:34.425Z,36.80
2017-12-23T09:22:34.406Z,36.10
2017-12-23T09:23:34.421Z,38.00
2017-12-23T09:24:34.357Z,36.50
2017-12-23T09:25:34.349Z,38.40
2017-12-23T09:26:34.323Z,38.30
2017-12-23T09:27:34.312Z,38.80
2017-12-23T09:28:34.315Z,39.90
2017-12-23T09:29:34.277Z,40.20
2017-12-23T09:30:34.279Z,37.90
2017-12-23T09:31:34.247Z,39.30
2017-12-23T09:32:34.215Z,39.60
2017-12-23T09:33:34.208Z,40.30
2017-12-23T09:34:34.193Z,41.40
2017-12-23T09:35:34.173Z,40.00
2017-12-23T09:36:34.147Z,41.30
2017-12-23T09:37:34.122Z,40.00
2017-12-23T09:38:34.117Z,40.70
2017-12-23T09:39:34.116Z,42.50
2017-12-23T09:40:34.093Z,41.40
2017-12-23T09:41:34.058Z,42.00
2017-12-23T09:42:34.059Z,41.00
2017-12-23T09:43:34.031Z,41.40
2017-12-23T09:44:34.007Z,42.20
2017-12-23T09:45:33.987Z,42.00
2017-12-23T09:46:33.989Z,40.80
2017-12-23T09:47:33.985Z,42.30
2017-12-23T09:48:33.934Z,43.90
2017-12-23T09:49:33.907Z,41.50
2017-12-23T09:50:33.888Z,42.40
2017-12-23T09:51:33.868Z,41.30
2017-12-23T09:52:33.873Z,42.10
2017-12-23T09:53:33.820Z,42.40
2017-12-23T09:54:33.810Z,40.80
2017-12-23T09:55:33.796Z,42.50
2017-12-23T09:56:33.781Z,42.80
2017-12-23T09:57:33.753Z,42.50
2017-12-23T09:58:33.800Z,42.00
2017-12-23T09:59:33.715Z,41.60
2017-12-23T10:00:33.718Z,40.00
2017-12-23T10:01:33.684Z,42.00
2017-12-23T10:02:33.673Z,41.50
2017-12-23T10:03:33.648Z,42.50
2017-12-23T10:04:33.629Z,43.20
2017-12-23T10:05:33.612Z,39.80
2017-12-23T10:06:33.593Z,39.70
2017-12-23T10:07:33.579Z,40.40
2017-12-23T10:08:33.557Z,41.30
2017-12-23T10:09:33.545Z,40.20
2017-12-23T10:10:33.521Z,41.10
2017-12-23T10:11:33.536Z,40.50
2017-12-23T10:12:33.487Z,40.30
2017-12-23T10:13:33.453Z,40.10
2017-12-23T10:14:33.443Z,39.40
2017-12-23T10:15:33.428Z,41.30
2017-12-23T10:16:33.404Z,38.70
2017-12-23T10:17:33.383Z,36.90
2017-12-23T10:18:33.370Z,40.30
2017-12-23T10:19:33.345Z,40.80
2017-12-23T10:20:33.333Z,41.60
2017-12-23T10:21:33.315Z,41.20
2017-12-23T10:22:33.292Z,41.40
2017-12-23T10:23:33.281Z,39.50
2017-12-23T10:24:33.284Z,40.90
2017-12-23T10:25:33.245Z,42.10
2017-12-23T10:26:33.310Z,41.50
2017-12-23T10:27:33.217Z,40.80
2017-12-23T10:28:33.221Z,41.80
2017-12-23T10:29:33.164Z,40.60
2017-12-23T10:30:33.166Z,38.00
2017-12-23T10:31:33.137Z,40.50
2017-12-23T10:32:33.138Z,39.70
2017-12-23T10:33:33.268Z,42.00
2017-12-23T10:34:33.101Z,40.70
2017-12-23T10:35:33.079Z,40.50
2017-12-23T10:36:33.076Z,40.40
2017-12-23T10:37:33.018Z,42.10
2017-12-23T10:38:33.013Z,40.10
2017-12-23T10:39:32.998Z,39.70
2017-12-23T10:40:32.970Z,41.20
2017-12-23T10:41:32.945Z,40.50
2017-12-23T10:42:32.929Z,39.50
2017-12-23T10:43:32.915Z,40.50
2017-12-23T10:44:32.908Z,40.90
2017-12-23T10:45:32.872Z,40.40
2017-12-23T10:46:32.974Z,42.60
2017-12-23T10:47:32.841Z,41.20
2017-12-23T10:48:32.855Z,40.60
2017-12-23T10:49:32.839Z,41.40
2017-12-23T10:50:32.795Z,40.70
2017-12-23T10:51:32.832Z,41.60
2017-12-23T10:52:32.780Z,38.70
2017-12-23T10:53:32.743Z,38.70
2017-12-23T10:54:32.720Z,38.30
2017-12-23T10:55:32.705Z,40.30
2017-12-23T10:56:32.690Z,38.60
2017-12-23T10:57:32.667Z,36.80
2017-12-23T10:58:32.642Z,39.90
2017-12-23T10:59:32.619Z,36.40
2017-12-23T11:00:32.608Z,37.90
2017-12-23T11:01:32.632Z,38.20
2017-12-23T11:02:32.591Z,38.40
2017-12-23T11:03:32.572Z,41.40
2017-12-23T11:04:32.557Z,40.20
2017-12-23T11:05:32.539Z,40.80
2017-12-23T11:06:32.491Z,39.50
2017-12-23T11:07:32.478Z,38.30
2017-12-23T11:08:32.455Z,37.10
2017-12-23T11:09:32.453Z,36.20
2017-12-23T11:10:32.420Z,38.30
2017-12-23T11:11:32.406Z,36.70
2017-12-23T11:12:32.409Z,37.90
2017-12-23T11:13:32.379Z,36.20
2017-12-23T11:14:32.359Z,37.90
2017-12-23T11:15:32.345Z,38.10
2017-12-23T11:16:32.337Z,37.60
2017-12-23T11:17:32.396Z,38.80
2017-12-23T11:18:32.266Z,37.10
2017-12-23T11:19:32.257Z,37.50
2017-12-23T11:20:32.291Z,37.00
2017-12-23T11:21:32.247Z,37.00
2017-12-23T11:22:32.200Z,36.20
2017-12-23T11:23:32.194Z,35.30
2017-12-23T11:24:32.185Z,35.30
2017-12-23T11:25:32.167Z,32.90
2017-12-23T11:26:32.128Z,34.70
2017-12-23T11:27:32.100Z,35.30
2017-12-23T11:28:32.203Z,34.30
2017-12-23T11:29:32.107Z,32.00
2017-12-23T11:30:32.053Z,33.00
2017-12-23T11:31:32.092Z,33.70
2017-12-23T11:32:32.045Z,33.80
2017-12-23T11:33:32.026Z,33.80
2017-12-23T11:34:31.999Z,32.50
2017-12-23T11:35:31.980Z,32.60
2017-12-23T11:36:31.963Z,32.90
2017-12-23T11:37:31.943Z,31.70
2017-12-23T11:38:31.948Z,33.00
2017-12-23T11:39:31.896Z,31.00
2017-12-23T11:40:31.874Z,30.70
2017-12-23T11:41:31.880Z,32.00
2017-12-23T11:42:31.860Z,31.60
2017-12-23T11:43:31.853Z,31.10
2017-12-23T11:44:31.812Z,30.20
2017-12-23T11:45:31.818Z,30.70
2017-12-23T11:46:31.798Z,29.70
2017-12-23T11:47:31.763Z,29.80
2017-12-23T11:48:31.738Z,30.90
2017-12-23T11:49:31.724Z,29.80
2017-12-23T11:50:31.710Z,30.80
2017-12-23T11:51:31.671Z,32.20
2017-12-23T11:52:31.761Z,31.50
2017-12-23T11:53:31.732Z,29.80
2017-12-23T11:54:31.635Z,30.10
2017-12-23T11:55:31.628Z,29.50
2017-12-23T11:56:31.613Z,29.50
2017-12-23T11:57:31.581Z,30.40
2017-12-23T11:58:31.656Z,29.30
2017-12-23T11:59:31.555Z,30.10
2017-12-23T12:00:31.516Z,29.00
2017-12-23T12:01:31.505Z,28.80
2017-12-23T12:02:31.496Z,28.30
2017-12-23T12:03:31.486Z,28.20
2017-12-23T12:04:31.481Z,27.60
2017-12-23T12:05:31.429Z,28.70
2017-12-23T12:06:31.410Z,29.50
2017-12-23T12:07:31.383Z,28.60
2017-12-23T12:08:31.381Z,28.80
2017-12-23T12:09:31.356Z,28.70
2017-12-23T12:10:31.355Z,29.70
2017-12-23T12:11:31.374Z,29.40
2017-12-23T12:12:31.307Z,29.90
2017-12-23T12:13:31.276Z,29.10
2017-12-23T12:14:31.265Z,29.70
2017-12-23T12:15:31.312Z,28.50
2017-12-23T12:16:31.234Z,29.70
2017-12-23T12:17:31.220Z,30.80
2017-12-23T12:18:31.206Z,29.40
2017-12-23T12:19:31.187Z,29.90
2017-12-23T12:20:31.186Z,30.10
2017-12-23T12:21:31.129Z,29.80
2017-12-23T12:22:31.147Z,30.30
2017-12-23T12:23:31.109Z,28.80
2017-12-23T12:24:31.083Z,31.60
2017-12-23T12:25:31.074Z,29.90
2017-12-23T12:26:31.068Z,28.80
2017-12-23T12:27:31.035Z,30.30
2017-12-23T12:28:31.059Z,30.20
2017-12-23T12:29:30.986Z,28.80
2017-12-23T12:30:31.101Z,29.50
2017-12-23T12:31:30.958Z,29.20
2017-12-23T12:32:30.943Z,28.90
2017-12-23T12:33:30.972Z,29.40
2017-12-23T12:34:30.919Z,26.30
2017-12-23T12:35:30.943Z,29.30
2017-12-23T12:36:30.868Z,29.40
2017-12-23T12:37:30.857Z,27.40
2017-12-23T12:38:30.837Z,27.60
2017-12-23T12:39:30.839Z,27.10
2017-12-23T12:40:30.811Z,26.70
2017-12-23T12:41:30.793Z,27.50
2017-12-23T12:42:30.776Z,26.40
2017-12-23T12:43:30.777Z,26.60
2017-12-23T12:44:30.753Z,25.60
2017-12-23T12:45:30.721Z,25.10
2017-12-23T12:46:30.682Z,26.00
2017-12-23T12:47:30.724Z,26.40
2017-12-23T12:48:30.654Z,27.60
2017-12-23T12:49:30.645Z,26.60
2017-12-23T12:50:30.631Z,28.10
2017-12-23T12:51:30.621Z,26.40
2017-12-23T12:52:30.602Z,28.90
2017-12-23T12:53:30.563Z,27.60
2017-12-23T12:54:30.570Z,27.80
2017-12-23T12:55:30.571Z,26.30